createdAt,value
2023-04-15T00:01:08.176Z,99762.94
2023-04-15T00:03:35.209Z,99756.25
2023-04-15T00:06:01.907Z,99761.84
2023-04-15T00:08:28.410Z,99752.00
2023-04-15T00:10:56.719Z,99757.03
2023-04-15T00:13:23.182Z,99755.06
2023-04-15T00:15:49.604Z,99756.66
2023-04-15T00:18:16.899Z,99753.78
2023-04-15T00:20:43.334Z,99757.75
2023-04-15T00:23:09.840Z,99759.38
2023-04-15T00:25:36.250Z,99765.38
2023-04-15T00:28:03.623Z,99765.34
2023-04-15T00:30:30.258Z,99762.16
2023-04-15T00:32:57.671Z,99759.72
2023-04-15T00:35:24.170Z,99761.31
2023-04-15T00:37:51.584Z,99752.94
2023-04-15T00:40:19.054Z,99751.38
2023-04-15T00:42:45.552Z,99756.97
2023-04-15T00:45:12.969Z,99754.56
2023-04-15T00:47:39.427Z,99753.75
2023-04-15T00:50:06.829Z,99753.75
2023-04-15T00:52:33.315Z,99764.06
2023-04-15T00:54:59.771Z,99759.63
2023-04-15T00:57:27.072Z,99756.47
2023-04-15T00:59:53.545Z,99760.03
2023-04-15T01:02:20.988Z,99753.72
2023-04-15T01:04:47.484Z,99746.16
2023-04-15T01:07:13.916Z,99757.22
2023-04-15T01:09:40.374Z,99743.38
2023-04-15T01:12:07.662Z,99750.88
2023-04-15T01:14:34.925Z,99749.25
2023-04-15T01:17:01.344Z,99749.25
2023-04-15T01:19:27.758Z,99750.84
2023-04-15T01:21:55.156Z,99746.59
2023-04-15T01:24:21.582Z,99749.88
2023-04-15T01:26:48.010Z,99757.44
2023-04-15T01:29:14.443Z,99758.25
2023-04-15T01:31:41.847Z,99757.81
2023-04-15T01:34:08.322Z,99753.78
2023-04-15T01:36:34.746Z,99749.38
2023-04-15T01:39:02.216Z,99739.47
2023-04-15T01:41:28.796Z,99750.16
2023-04-15T01:43:55.240Z,99750.16
2023-04-15T01:46:21.731Z,99747.78
2023-04-15T01:48:49.024Z,99751.72
2023-04-15T01:51:15.449Z,99745.78
2023-04-15T01:53:42.720Z,99746.97
2023-04-15T01:56:09.169Z,99751.28
2023-04-15T01:58:35.666Z,99750.94
2023-04-15T02:01:03.151Z,99751.28
2023-04-15T02:03:30.678Z,99750.53
2023-04-15T02:05:57.182Z,99751.75
2023-04-15T02:08:24.514Z,99748.28
2023-04-15T02:10:50.979Z,99743.88
2023-04-15T02:13:18.336Z,99746.59
2023-04-15T02:15:45.718Z,99747.78
2023-04-15T02:18:12.151Z,99750.59
2023-04-15T02:20:39.493Z,99741.41
2023-04-15T02:23:05.975Z,99733.13
2023-04-15T02:25:33.285Z,99743.00
2023-04-15T02:27:59.715Z,99744.56
2023-04-15T02:30:27.040Z,99743.38
2023-04-15T02:32:54.502Z,99743.00
2023-04-15T02:35:20.990Z,99741.41
2023-04-15T02:37:48.359Z,99746.53
2023-04-15T02:40:14.842Z,99737.78
2023-04-15T02:42:42.216Z,99744.97
2023-04-15T02:45:08.668Z,99744.59
2023-04-15T02:47:36.103Z,99742.19
2023-04-15T02:50:02.558Z,99735.06
2023-04-15T02:52:29.931Z,99744.59
2023-04-15T02:54:56.372Z,99737.03
2023-04-15T02:57:23.621Z,99737.03
2023-04-15T02:59:50.145Z,99744.19
2023-04-15T03:02:17.608Z,99738.19
2023-04-15T03:04:44.174Z,99743.34
2023-04-15T03:07:11.519Z,99736.22
2023-04-15T03:09:38.764Z,99738.63
2023-04-15T03:12:06.082Z,99742.59
2023-04-15T03:14:32.505Z,99740.56
2023-04-15T03:16:58.948Z,99740.19
2023-04-15T03:19:26.304Z,99737.00
2023-04-15T03:21:53.706Z,99733.44
2023-04-15T03:24:21.009Z,99735.84
2023-04-15T03:26:48.402Z,99738.19
2023-04-15T03:29:15.737Z,99739.38
2023-04-15T03:31:42.190Z,99736.59
2023-04-15T03:34:08.730Z,99740.56
2023-04-15T03:36:35.166Z,99745.69
2023-04-15T03:39:02.680Z,99739.78
2023-04-15T03:41:29.284Z,99744.56
2023-04-15T03:43:56.538Z,99736.63
2023-04-15T03:46:23.017Z,99737.03
2023-04-15T03:48:49.473Z,99748.16
2023-04-15T03:51:15.950Z,99743.78
2023-04-15T03:53:42.384Z,99741.41
2023-04-15T03:56:08.845Z,99746.91
2023-04-15T03:58:35.303Z,99750.78
2023-04-15T04:01:02.601Z,99753.06
2023-04-15T04:03:30.317Z,99746.28
2023-04-15T04:05:56.892Z,99753.03
2023-04-15T04:08:23.377Z,99750.63
2023-04-15T04:10:49.836Z,99750.19
2023-04-15T04:13:17.167Z,99756.56
2023-04-15T04:15:43.554Z,99749.41
2023-04-15T04:18:10.073Z,99753.03
2023-04-15T04:20:37.397Z,99748.25
2023-04-15T04:23:04.787Z,99748.69
2023-04-15T04:25:31.265Z,99754.66
2023-04-15T04:27:58.626Z,99746.69
2023-04-15T04:30:26.001Z,99753.06
2023-04-15T04:32:53.352Z,99753.06
2023-04-15T04:35:20.767Z,99751.06
2023-04-15T04:37:47.207Z,99742.28
2023-04-15T04:40:13.641Z,99745.06
2023-04-15T04:42:40.327Z,99745.44
2023-04-15T04:45:06.812Z,99747.41
2023-04-15T04:47:34.201Z,99755.47
2023-04-15T04:50:00.695Z,99746.81
2023-04-15T04:52:27.966Z,99753.94
2023-04-15T04:54:54.395Z,99755.25
2023-04-15T04:57:21.694Z,99752.84
2023-04-15T04:59:48.137Z,99749.66
2023-04-15T05:02:14.666Z,99757.19
2023-04-15T05:04:42.071Z,99754.78
2023-04-15T05:07:08.558Z,99744.88
2023-04-15T05:09:35.023Z,99749.66
2023-04-15T05:12:01.435Z,99753.97
2023-04-15T05:14:27.871Z,99752.84
2023-04-15T05:16:55.154Z,99754.34
2023-04-15T05:19:23.502Z,99755.53
2023-04-15T05:21:49.942Z,99753.25
2023-04-15T05:24:17.243Z,99756.31
2023-04-15T05:26:44.505Z,99750.34
2023-04-15T05:29:12.832Z,99754.69
2023-04-15T05:31:40.221Z,99764.59
2023-04-15T05:34:06.829Z,99757.84
2023-04-15T05:36:34.137Z,99756.25
2023-04-15T05:39:00.787Z,99759.81
2023-04-15T05:41:27.466Z,99759.81
2023-04-15T05:43:54.793Z,99753.44
2023-04-15T05:46:22.317Z,99759.34
2023-04-15T05:48:49.698Z,99766.53
2023-04-15T05:51:16.212Z,99766.59
2023-04-15T05:53:42.884Z,99770.94
2023-04-15T05:56:09.345Z,99771.38
2023-04-15T05:58:36.760Z,99768.13
2023-04-15T06:01:04.428Z,99770.09
2023-04-15T06:03:32.036Z,99767.31
2023-04-15T06:05:58.630Z,99769.69
2023-04-15T06:08:26.023Z,99767.31
2023-04-15T06:10:52.486Z,99775.69
2023-04-15T06:13:18.933Z,99767.38
2023-04-15T06:15:45.443Z,99769.94
2023-04-15T06:18:11.889Z,99767.97
2023-04-15T06:20:38.345Z,99768.72
2023-04-15T06:23:05.754Z,99776.28
2023-04-15T06:25:32.195Z,99777.47
2023-04-15T06:27:58.626Z,99770.38
2023-04-15T06:30:25.054Z,99778.31
2023-04-15T06:32:52.470Z,99779.47
2023-04-15T06:35:19.851Z,99782.28
2023-04-15T06:37:47.125Z,99780.28
2023-04-15T06:40:13.592Z,99781.06
2023-04-15T06:42:40.024Z,99789.44
2023-04-15T06:45:07.349Z,99781.94
2023-04-15T06:47:34.672Z,99786.28
2023-04-15T06:50:01.990Z,99790.25
2023-04-15T06:52:28.451Z,99796.91
2023-04-15T06:54:55.708Z,99787.69
2023-04-15T06:57:22.979Z,99798.31
2023-04-15T06:59:50.285Z,99797.19
2023-04-15T07:02:17.581Z,99791.25
2023-04-15T07:04:44.871Z,99794.94
2023-04-15T07:07:13.166Z,99796.53
2023-04-15T07:09:39.646Z,99803.31
2023-04-15T07:12:07.966Z,99806.09
2023-04-15T07:14:34.381Z,99804.19
2023-04-15T07:17:00.868Z,99806.94
2023-04-15T07:19:28.161Z,99815.59
2023-04-15T07:21:54.654Z,99809.31
2023-04-15T07:24:22.948Z,99806.56
2023-04-15T07:26:49.445Z,99810.09
2023-04-15T07:29:16.745Z,99807.75
2023-04-15T07:31:43.981Z,99808.22
2023-04-15T07:34:10.376Z,99808.19
2023-04-15T07:36:38.970Z,99809.75
2023-04-15T07:39:06.209Z,99817.31
2023-04-15T07:41:32.690Z,99806.22
2023-04-15T07:44:01.888Z,99810.59
2023-04-15T07:46:28.484Z,99817.00
2023-04-15T07:48:55.018Z,99811.44
2023-04-15T07:51:21.395Z,99811.81
2023-04-15T07:53:49.706Z,99804.31
2023-04-15T07:56:18.912Z,99805.09
2023-04-15T07:58:45.369Z,99814.59
2023-04-15T08:01:11.821Z,99809.47
2023-04-15T08:03:38.367Z,99809.06
2023-04-15T08:06:08.375Z,99809.88
2023-04-15T08:08:38.287Z,99805.06
2023-04-15T08:11:06.644Z,99802.69
2023-04-15T08:13:34.932Z,99808.69
2023-04-15T08:16:01.407Z,99801.50
2023-04-15T08:18:27.951Z,99804.66
2023-04-15T08:20:54.408Z,99800.66
2023-04-15T08:23:20.907Z,99803.47
2023-04-15T08:25:47.332Z,99808.66
2023-04-15T08:28:14.620Z,99801.16
2023-04-15T08:30:42.927Z,99813.03
2023-04-15T08:33:09.347Z,99808.19
2023-04-15T08:35:35.688Z,99799.88
2023-04-15T08:38:04.885Z,99807.00
2023-04-15T08:40:31.373Z,99805.81
2023-04-15T08:42:57.766Z,99805.44
2023-04-15T08:45:24.163Z,99808.97
2023-04-15T08:47:50.652Z,99805.34
2023-04-15T08:50:17.093Z,99814.09
2023-04-15T08:52:45.358Z,99815.72
2023-04-15T08:55:13.583Z,99812.16
2023-04-15T08:57:42.817Z,99811.75
2023-04-15T09:00:09.252Z,99809.34
2023-04-15T09:02:35.991Z,99813.69
2023-04-15T09:05:02.608Z,99816.44
2023-04-15T09:07:28.988Z,99813.28
2023-04-15T09:09:55.377Z,99812.09
2023-04-15T09:12:21.810Z,99826.00
2023-04-15T09:14:48.187Z,99811.31
2023-04-15T09:17:15.436Z,99820.81
2023-04-15T09:19:41.771Z,99814.84
2023-04-15T09:22:08.132Z,99821.16
2023-04-15T09:24:34.505Z,99819.25
2023-04-15T09:27:00.903Z,99820.78
2023-04-15T09:29:27.252Z,99823.22
2023-04-15T09:31:54.532Z,99815.66
2023-04-15T09:34:21.790Z,99818.47
2023-04-15T09:36:50.429Z,99826.00
2023-04-15T09:39:17.436Z,99828.41
2023-04-15T09:41:43.780Z,99830.78
2023-04-15T09:44:10.120Z,99827.66
2023-04-15T09:46:36.510Z,99821.28
2023-04-15T09:49:02.892Z,99837.16
2023-04-15T09:51:29.283Z,99827.25
2023-04-15T09:53:55.659Z,99836.75
2023-04-15T09:56:22.012Z,99841.88
2023-04-15T09:58:48.371Z,99838.31
2023-04-15T10:01:15.580Z,99835.53
2023-04-15T10:03:42.020Z,99840.25
2023-04-15T10:06:08.483Z,99834.34
2023-04-15T10:08:34.922Z,99840.31
2023-04-15T10:11:01.335Z,99835.44
2023-04-15T10:13:28.735Z,99833.41
2023-04-15T10:15:55.079Z,99841.25
2023-04-15T10:18:21.441Z,99836.44
2023-04-15T10:20:47.785Z,99839.16
2023-04-15T10:23:14.992Z,99836.81
2023-04-15T10:25:41.403Z,99841.53
2023-04-15T10:28:07.754Z,99833.97
2023-04-15T10:30:34.071Z,99835.53
2023-04-15T10:33:00.465Z,99839.91
2023-04-15T10:35:27.115Z,99840.25
2023-04-15T10:37:54.070Z,99837.44
2023-04-15T10:40:21.528Z,99838.63
2023-04-15T10:42:47.903Z,99843.41
2023-04-15T10:45:15.129Z,99838.69
2023-04-15T10:47:41.808Z,99839.03
2023-04-15T10:50:08.192Z,99844.97
2023-04-15T10:52:34.513Z,99837.84
2023-04-15T10:55:00.935Z,99837.50
2023-04-15T10:57:27.260Z,99836.63
2023-04-15T10:59:53.608Z,99841.41
2023-04-15T11:02:20.028Z,99850.53
2023-04-15T11:04:46.436Z,99837.84
2023-04-15T11:07:13.675Z,99839.00
2023-04-15T11:09:40.021Z,99841.00
2023-04-15T11:12:06.369Z,99829.53
2023-04-15T11:14:32.759Z,99832.66
2023-04-15T11:16:59.103Z,99831.47
2023-04-15T11:19:25.440Z,99835.41
2023-04-15T11:21:51.797Z,99829.06
2023-04-15T11:24:18.273Z,99835.00
2023-04-15T11:26:44.603Z,99836.16
2023-04-15T11:29:10.963Z,99833.00
2023-04-15T11:31:37.420Z,99844.91
2023-04-15T11:34:03.946Z,99838.53
2023-04-15T11:36:30.400Z,99839.75
2023-04-15T11:38:56.807Z,99836.19
2023-04-15T11:41:23.155Z,99841.31
2023-04-15T11:43:49.487Z,99845.31
2023-04-15T11:46:16.866Z,99837.41
2023-04-15T11:48:43.350Z,99842.53
2023-04-15T11:51:09.744Z,99844.09
2023-04-15T11:53:36.070Z,99850.13
2023-04-15T11:56:02.421Z,99854.09
2023-04-15T11:58:28.775Z,99850.91
2023-04-15T12:00:55.082Z,99859.63
2023-04-15T12:03:21.542Z,99860.78
2023-04-15T12:05:48.139Z,99864.72
2023-04-15T12:08:14.463Z,99864.34
2023-04-15T12:10:40.812Z,99864.31
2023-04-15T12:13:07.179Z,99868.63
2023-04-15T12:15:36.309Z,99878.16
2023-04-15T12:18:02.756Z,99885.00
2023-04-15T12:20:31.790Z,99881.75
2023-04-15T12:22:58.141Z,99889.09
2023-04-15T12:25:27.299Z,99895.16
2023-04-15T12:27:53.655Z,99895.19
2023-04-15T12:30:20.040Z,99899.59
2023-04-15T12:32:46.410Z,99898.38
2023-04-15T12:35:12.801Z,99903.91
2023-04-15T12:37:39.139Z,99907.53
2023-04-15T12:40:05.551Z,99907.22
2023-04-15T12:42:31.901Z,99905.69
2023-04-15T12:44:58.223Z,99915.66
2023-04-15T12:47:24.553Z,99915.22
2023-04-15T12:49:50.884Z,99918.72
2023-04-15T12:52:18.241Z,99913.19
2023-04-15T12:54:44.581Z,99910.00
2023-04-15T12:57:11.777Z,99914.38
2023-04-15T12:59:38.123Z,99914.03
2023-04-15T13:02:04.529Z,99921.94
2023-04-15T13:04:31.512Z,99927.88
2023-04-15T13:06:58.077Z,99933.41
2023-04-15T13:09:24.509Z,99931.78
2023-04-15T13:11:50.891Z,99926.25
2023-04-15T13:14:17.290Z,99935.75
2023-04-15T13:16:43.685Z,99933.78
2023-04-15T13:19:10.008Z,99937.34
2023-04-15T13:21:36.607Z,99946.00
2023-04-15T13:24:03.169Z,99945.25
2023-04-15T13:26:29.707Z,99948.75
2023-04-15T13:28:56.072Z,99955.88
2023-04-15T13:31:22.446Z,99953.56
2023-04-15T13:33:48.836Z,99959.88
2023-04-15T13:36:15.196Z,99956.28
2023-04-15T13:38:41.586Z,99956.22
2023-04-15T13:41:08.004Z,99960.66
2023-04-15T13:43:34.422Z,99969.03
2023-04-15T13:46:00.952Z,99967.81
2023-04-15T13:48:27.340Z,99960.69
2023-04-15T13:50:53.743Z,99971.41
2023-04-15T13:53:20.096Z,99967.81
2023-04-15T13:55:46.426Z,99962.63
2023-04-15T13:58:12.833Z,99972.22
2023-04-15T14:00:39.172Z,99966.34
2023-04-15T14:03:05.677Z,99971.09
2023-04-15T14:05:32.118Z,99974.63
2023-04-15T14:07:58.473Z,99973.00
2023-04-15T14:10:24.898Z,99968.56
2023-04-15T14:12:51.255Z,99961.75
2023-04-15T14:15:17.651Z,99970.47
2023-04-15T14:17:44.073Z,99981.16
2023-04-15T14:20:10.507Z,99985.56
2023-04-15T14:22:36.890Z,99981.91
2023-04-15T14:25:03.266Z,99985.13
2023-04-15T14:27:29.631Z,99992.63
2023-04-15T14:29:55.968Z,99988.25
2023-04-15T14:32:22.341Z,99983.88
2023-04-15T14:34:48.741Z,99979.09
2023-04-15T14:37:15.087Z,99980.66
2023-04-15T14:39:41.441Z,99990.66
2023-04-15T14:42:07.830Z,99998.09
2023-04-15T14:44:34.245Z,99991.34
2023-04-15T14:47:00.621Z,99989.00
2023-04-15T14:49:26.986Z,99997.72
2023-04-15T14:51:53.315Z,99996.19
2023-04-15T14:54:21.932Z,100008.13
2023-04-15T14:56:48.715Z,100001.00
2023-04-15T14:59:15.241Z,100004.16
2023-04-15T15:01:41.627Z,100006.91
2023-04-15T15:04:09.052Z,100011.22
2023-04-15T15:06:35.495Z,100011.22
2023-04-15T15:09:02.078Z,100008.47
2023-04-15T15:11:28.622Z,100010.44
2023-04-15T15:13:55.028Z,100019.59
2023-04-15T15:16:21.410Z,100024.72
2023-04-15T15:18:47.828Z,100026.28
2023-04-15T15:21:15.031Z,100027.84
2023-04-15T15:23:41.685Z,100017.94
2023-04-15T15:26:08.060Z,100019.97
2023-04-15T15:28:34.434Z,100029.06
2023-04-15T15:31:00.818Z,100034.22
2023-04-15T15:33:28.989Z,100025.06
2023-04-15T15:35:56.399Z,100027.84
2023-04-15T15:38:22.851Z,100024.31
2023-04-15T15:40:49.203Z,100029.44
2023-04-15T15:43:15.536Z,100046.13
2023-04-15T15:45:41.911Z,100029.09
2023-04-15T15:48:08.238Z,100032.22
2023-04-15T15:50:34.594Z,100021.06
2023-04-15T15:53:00.997Z,100035.34
2023-04-15T15:55:30.111Z,100032.25
2023-04-15T15:57:56.423Z,100032.59
2023-04-15T16:00:22.772Z,100021.91
2023-04-15T16:03:06.181Z,100031.03
2023-04-15T16:05:33.811Z,100042.19
2023-04-15T16:08:00.231Z,100040.25
2023-04-15T16:10:26.595Z,100046.94
2023-04-15T16:12:52.904Z,100047.72
2023-04-15T16:15:19.243Z,100055.19
2023-04-15T16:17:45.739Z,100058.03
2023-04-15T16:20:12.166Z,100065.97
2023-04-15T16:22:41.298Z,100063.22
2023-04-15T16:25:07.709Z,100064.38
2023-04-15T16:27:36.448Z,100062.00
2023-04-15T16:30:09.912Z,100063.97
2023-04-15T16:32:36.249Z,100061.59
2023-04-15T16:35:02.575Z,100064.38
2023-04-15T16:37:28.914Z,100064.38
2023-04-15T16:39:55.257Z,100081.78
2023-04-15T16:42:21.591Z,100084.59
2023-04-15T16:44:50.730Z,100090.97
2023-04-15T16:47:17.172Z,100097.72
2023-04-15T16:49:43.490Z,100091.41
2023-04-15T16:52:09.855Z,100100.88
2023-04-15T16:54:36.278Z,100100.91
2023-04-15T16:57:02.667Z,100106.84
2023-04-15T16:59:29.012Z,100108.44
2023-04-15T17:01:55.506Z,100115.94
2023-04-15T17:04:21.992Z,100119.13
2023-04-15T17:06:48.414Z,100120.34
2023-04-15T17:09:15.629Z,100125.91
2023-04-15T17:11:41.940Z,100127.50
2023-04-15T17:14:08.445Z,100131.03
2023-04-15T17:16:34.797Z,100140.97
2023-04-15T17:19:01.128Z,100136.19
2023-04-15T17:21:27.572Z,100134.22
2023-04-15T17:23:53.896Z,100144.88
2023-04-15T17:26:20.230Z,100139.34
2023-04-15T17:28:46.578Z,100141.38
2023-04-15T17:31:12.956Z,100142.53
2023-04-15T17:34:00.385Z,100146.09
2023-04-15T17:36:25.686Z,100146.06
2023-04-15T17:38:52.111Z,100145.66
2023-04-15T17:41:18.457Z,100143.72
2023-04-15T17:43:44.777Z,100150.84
2023-04-15T17:46:12.076Z,100152.00
2023-04-15T17:48:38.463Z,100153.22
2023-04-15T17:51:04.901Z,100162.75
2023-04-15T17:53:31.259Z,100168.28
2023-04-15T17:55:57.715Z,100179.03
2023-04-15T17:58:24.056Z,100180.63
2023-04-15T18:00:50.407Z,100186.19
2023-04-15T18:03:16.964Z,100198.84
2023-04-15T18:05:43.370Z,100203.59
2023-04-15T18:08:09.756Z,100207.56
2023-04-15T18:10:36.096Z,100213.53
2023-04-15T18:13:02.508Z,100217.09
2023-04-15T18:15:28.878Z,100215.09
2023-04-15T18:17:55.301Z,100221.84
2023-04-15T18:20:21.672Z,100219.84
2023-04-15T18:22:48.035Z,100228.59
2023-04-15T18:25:14.405Z,100230.56
2023-04-15T18:27:40.774Z,100236.50
2023-04-15T18:30:07.161Z,100232.97
2023-04-15T18:32:33.556Z,100234.97
2023-04-15T18:34:59.910Z,100234.16
2023-04-15T18:37:26.308Z,100245.25
2023-04-15T18:39:52.656Z,100238.91
2023-04-15T18:42:19.003Z,100242.06
2023-04-15T18:44:45.362Z,100242.88
2023-04-15T18:47:11.712Z,100242.88
2023-04-15T18:49:38.043Z,100250.00
2023-04-15T18:52:04.415Z,100251.63
2023-04-15T18:54:30.768Z,100254.78
2023-04-15T18:56:57.119Z,100247.66
2023-04-15T18:59:30.154Z,100252.44
2023-04-15T19:01:57.178Z,100259.19
2023-04-15T19:04:23.629Z,100266.72
2023-04-15T19:06:49.984Z,100258.41
2023-04-15T19:09:16.335Z,100265.91
2023-04-15T19:11:42.719Z,100258.78
2023-04-15T19:14:09.058Z,100257.59
2023-04-15T19:16:35.534Z,100254.81
2023-04-15T19:19:01.912Z,100261.16
2023-04-15T19:21:29.410Z,100264.31
2023-04-15T19:23:55.767Z,100266.31
2023-04-15T19:26:22.113Z,100268.28
2023-04-15T19:28:48.481Z,100263.53
2023-04-15T19:31:14.888Z,100273.44
2023-04-15T19:33:41.321Z,100268.72
2023-04-15T19:36:08.055Z,100271.47
2023-04-15T19:38:34.381Z,100287.31
2023-04-15T19:41:00.745Z,100295.66
2023-04-15T19:43:27.090Z,100290.50
2023-04-15T19:45:53.537Z,100290.50
2023-04-15T19:48:19.941Z,100295.66
2023-04-15T19:50:46.291Z,100302.81
2023-04-15T19:53:12.627Z,100310.69
2023-04-15T19:55:38.973Z,100294.03
2023-04-15T19:58:05.365Z,100298.41
2023-04-15T20:00:31.703Z,100310.28
2023-04-15T20:02:58.243Z,100313.88
2023-04-15T20:05:24.685Z,100308.75
2023-04-15T20:07:51.022Z,100314.69
2023-04-15T20:10:18.245Z,100315.47
2023-04-15T20:12:50.712Z,100318.22
2023-04-15T20:15:19.311Z,100321.84
2023-04-15T20:17:45.729Z,100319.06
2023-04-15T20:20:13.020Z,100321.00
2023-04-15T20:22:39.359Z,100313.88
2023-04-15T20:25:05.765Z,100321.38
2023-04-15T20:27:32.116Z,100318.63
2023-04-15T20:29:58.454Z,100315.06
2023-04-15T20:32:24.944Z,100319.44
2023-04-15T20:34:51.337Z,100317.03
2023-04-15T20:37:17.715Z,100314.66
2023-04-15T20:39:44.030Z,100328.16
2023-04-15T20:42:10.422Z,100321.38
2023-04-15T20:44:36.783Z,100319.81
2023-04-15T20:47:03.154Z,100321.38
2023-04-15T20:49:29.609Z,100323.81
2023-04-15T20:51:55.951Z,100321.41
2023-04-15T20:54:22.271Z,100323.81
2023-04-15T20:56:48.617Z,100320.59
2023-04-15T20:59:14.994Z,100319.00
2023-04-15T21:01:41.458Z,100326.94
2023-04-15T21:04:07.802Z,100318.22
2023-04-15T21:06:34.175Z,100323.00
2023-04-15T21:09:00.525Z,100323.00
2023-04-15T21:11:46.199Z,100325.38
2023-04-15T21:14:13.222Z,100327.75
2023-04-15T21:16:39.607Z,100326.56
2023-04-15T21:19:06.101Z,100322.59
2023-04-15T21:21:32.642Z,100328.16
2023-04-15T21:23:58.971Z,100326.53
2023-04-15T21:26:25.346Z,100330.09
2023-04-15T21:28:51.671Z,100328.94
2023-04-15T21:31:18.910Z,100326.94
2023-04-15T21:33:45.299Z,100329.31
2023-04-15T21:36:11.619Z,100330.91
2023-04-15T21:38:37.992Z,100327.75
2023-04-15T21:41:04.318Z,100325.75
2023-04-15T21:43:30.645Z,100324.56
2023-04-15T21:46:23.577Z,100339.25
2023-04-15T21:48:43.265Z,100334.47
2023-04-15T21:51:09.602Z,100334.09
2023-04-15T21:53:35.923Z,100336.06
2023-04-15T21:56:02.261Z,100338.03
2023-04-15T21:58:28.581Z,100345.56
2023-04-15T22:00:54.986Z,100343.59
2023-04-15T22:03:21.458Z,100345.19
2023-04-15T22:05:47.803Z,100345.97
2023-04-15T22:08:14.120Z,100352.69
2023-04-15T22:10:40.476Z,100355.50
2023-04-15T22:13:06.826Z,100355.06
2023-04-15T22:15:33.171Z,100352.31
2023-04-15T22:17:59.608Z,100361.84
2023-04-15T22:20:26.008Z,100363.78
2023-04-15T22:22:54.240Z,100359.84
2023-04-15T22:25:20.909Z,100357.06
2023-04-15T22:27:47.258Z,100365.78
2023-04-15T22:30:13.628Z,100369.34
2023-04-15T22:32:40.056Z,100365.38
2023-04-15T22:35:06.482Z,100369.75
2023-04-15T22:37:32.832Z,100374.09
2023-04-15T22:39:59.214Z,100380.03
2023-04-15T22:42:25.621Z,100374.88
2023-04-15T22:44:51.955Z,100387.97
2023-04-15T22:47:18.469Z,100387.19
2023-04-15T22:49:44.810Z,100391.94
2023-04-15T22:52:17.206Z,100388.75
2023-04-15T22:54:50.099Z,100385.59
2023-04-15T22:57:16.442Z,100391.13
2023-04-15T22:59:42.834Z,100396.28
2023-04-15T23:02:09.255Z,100395.13
2023-04-15T23:04:35.829Z,100392.72
2023-04-15T23:07:03.264Z,100389.97
2023-04-15T23:09:29.614Z,100393.13
2023-04-15T23:11:55.989Z,100390.34
2023-04-15T23:14:22.334Z,100389.56
2023-04-15T23:16:48.699Z,100389.94
2023-04-15T23:19:15.067Z,100391.91
2023-04-15T23:21:41.393Z,100397.84
2023-04-15T23:24:07.752Z,100389.53
2023-04-15T23:26:34.087Z,100390.34
2023-04-15T23:29:00.476Z,100389.53
2023-04-15T23:31:26.818Z,100391.53
2023-04-15T23:33:53.181Z,100397.47
2023-04-15T23:36:19.523Z,100390.34
2023-04-15T23:38:45.870Z,100394.28
2023-04-15T23:41:12.269Z,100395.91
2023-04-15T23:43:38.577Z,100391.91
2023-04-15T23:46:04.906Z,100387.19
2023-04-15T23:48:31.247Z,100391.91
2023-04-15T23:50:57.575Z,100397.44
2023-04-15T23:53:23.917Z,100386.75
2023-04-15T23:55:50.228Z,100396.28
2023-04-15T23:58:16.599Z,100404.59
